Time,TemperatureF,DewpointF,PressureIn,WindDirection,WindDirectionDegrees,WindSpeedMPH,WindSpeedGustMPH,Humidity,HourlyPrecipIn,Conditions,Clouds,dailyrainin,SoftwareType,DateUTC
2013-03-29 00:03:00,67.4,22.0,30.05,West,264,2.0,-999.0,18,-99.99,,,0.00,weatherlink.com 1.10,2013-03-29 07:03:00,
2013-03-29 00:18:00,66.4,24.0,30.05,West,261,4.0,-999.0,20,-99.99,,,0.00,weatherlink.com 1.10,2013-03-29 07:18:00,
2013-03-29 00:33:00,66.0,21.0,30.05,SW,234,6.0,-999.0,18,-99.99,,,0.00,weatherlink.com 1.10,2013-03-29 07:33:00,
2013-03-29 00:48:00,65.8,22.0,30.05,South,185,1.0,-999.0,19,-99.99,,,0.00,weatherlink.com 1.10,2013-03-29 07:48:00,
2013-03-29 01:03:00,65.5,22.0,30.05,NW,306,2.0,-999.0,19,-99.99,,,0.00,weatherlink.com 1.10,2013-03-29 08:03:00,
2013-03-29 01:18:00,64.3,27.0,30.05,WSW,240,0.0,-999.0,24,-99.99,,,0.00,weatherlink.com 1.10,2013-03-29 08:18:00,
2013-03-29 01:33:00,63.2,26.0,30.05,SW,234,0.0,-999.0,24,-99.99,,,0.00,weatherlink.com 1.10,2013-03-29 08:33:00,
2013-03-29 01:48:00,62.0,26.0,30.06,SW,217,0.0,-999.0,25,-99.99,,,0.00,weatherlink.com 1.10,2013-03-29 08:48:00,
2013-03-29 02:03:00,61.5,21.0,30.06,SW,217,0.0,-999.0,21,-99.99,,,0.00,weatherlink.com 1.10,2013-03-29 09:03:00,
2013-03-29 02:18:00,61.8,20.0,30.05,SSW,209,0.0,-999.0,20,-99.99,,,0.00,weatherlink.com 1.10,2013-03-29 09:18:00,
2013-03-29 02:34:00,60.9,21.0,30.05,WSW,243,0.0,-999.0,21,-99.99,,,0.00,weatherlink.com 1.10,2013-03-29 09:34:00,
2013-03-29 02:49:00,60.1,20.0,30.05,WSW,241,0.0,-999.0,21,-99.99,,,0.00,weatherlink.com 1.10,2013-03-29 09:49:00,
2013-03-29 03:04:00,59.2,21.0,30.05,WSW,256,0.0,-999.0,23,-99.99,,,0.00,weatherlink.com 1.10,2013-03-29 10:04:00,
2013-03-29 03:19:00,58.6,22.0,30.05,SSW,192,0.0,-999.0,24,-99.99,,,0.00,weatherlink.com 1.10,2013-03-29 10:19:00,
2013-03-29 03:34:00,58.9,21.0,30.05,SSW,198,0.0,-999.0,23,-99.99,,,0.00,weatherlink.com 1.10,2013-03-29 10:34:00,
2013-03-29 03:49:00,58.6,23.0,30.05,SSW,199,0.0,-999.0,25,-99.99,,,0.00,weatherlink.com 1.10,2013-03-29 10:49:00,
2013-03-29 04:04:00,57.0,23.0,30.06,South,186,0.0,-999.0,27,-99.99,,,0.00,weatherlink.com 1.10,2013-03-29 11:04:00,
2013-03-29 04:19:00,56.0,23.0,30.06,SW,223,0.0,-999.0,28,-99.99,,,0.00,weatherlink.com 1.10,2013-03-29 11:19:00,
2013-03-29 04:34:00,55.0,22.0,30.07,SW,226,0.0,-999.0,28,-99.99,,,0.00,weatherlink.com 1.10,2013-03-29 11:34:00,
2013-03-29 04:49:00,55.0,22.0,30.07,WSW,240,0.0,-999.0,28,-99.99,,,0.00,weatherlink.com 1.10,2013-03-29 11:49:00,
2013-03-29 05:04:00,54.2,22.0,30.07,WSW,258,0.0,-999.0,28,-99.99,,,0.00,weatherlink.com 1.10,2013-03-29 12:04:00,
2013-03-29 05:20:00,54.5,21.0,30.09,SSW,198,0.0,-999.0,27,-99.99,,,0.00,weatherlink.com 1.10,2013-03-29 12:20:00,
2013-03-29 05:35:00,54.7,23.0,30.09,WSW,256,0.0,-999.0,29,-99.99,,,0.00,weatherlink.com 1.10,2013-03-29 12:35:00,
2013-03-29 05:50:00,54.1,22.0,30.09,WSW,243,0.0,-999.0,29,-99.99,,,0.00,weatherlink.com 1.10,2013-03-29 12:50:00,
2013-03-29 06:05:00,54.1,23.0,30.09,SW,233,0.0,-999.0,30,-99.99,,,0.00,weatherlink.com 1.10,2013-03-29 13:05:00,
2013-03-29 06:20:00,52.9,21.0,30.11,SW,234,0.0,-999.0,29,-99.99,,,0.00,weatherlink.com 1.10,2013-03-29 13:20:00,
2013-03-29 06:35:00,52.3,22.0,30.11,SW,224,0.0,-999.0,30,-99.99,,,0.00,weatherlink.com 1.10,2013-03-29 13:35:00,
2013-03-29 06:50:00,53.6,23.0,30.11,South,179,0.0,-999.0,30,-99.99,,,0.00,weatherlink.com 1.10,2013-03-29 13:50:00,
2013-03-29 07:05:00,54.8,25.0,30.12,South,186,0.0,-999.0,31,-99.99,,,0.00,weatherlink.com 1.10,2013-03-29 14:05:00,
2013-03-29 07:20:00,57.6,25.0,30.12,SW,216,0.0,-999.0,29,-99.99,,,0.00,weatherlink.com 1.10,2013-03-29 14:20:00,
2013-03-29 07:35:00,61.0,27.0,30.11,West,274,1.0,-999.0,27,-99.99,,,0.00,weatherlink.com 1.10,2013-03-29 14:35:00,
2013-03-29 07:50:00,64.2,28.0,30.11,South,188,0.0,-999.0,25,-99.99,,,0.00,weatherlink.com 1.10,2013-03-29 14:50:00,
2013-03-29 08:05:00,69.6,28.0,30.09,South,188,0.0,-999.0,21,-99.99,,,0.00,weatherlink.com 1.10,2013-03-29 15:05:00,
2013-03-29 08:20:00,69.8,28.0,30.10,South,188,0.0,-999.0,21,-99.99,,,0.00,weatherlink.com 1.10,2013-03-29 15:20:00,
2013-03-29 08:36:00,70.6,29.0,30.10,SSW,198,0.0,-999.0,21,-99.99,,,0.00,weatherlink.com 1.10,2013-03-29 15:36:00,
2013-03-29 09:06:00,73.5,29.0,30.10,SSW,199,0.0,-999.0,19,-99.99,,,0.00,weatherlink.com 1.10,2013-03-29 16:06:00,
2013-03-29 09:21:00,74.2,28.0,30.09,South,184,0.0,-999.0,18,-99.99,,,0.00,weatherlink.com 1.10,2013-03-29 16:21:00,
2013-03-29 09:36:00,76.1,31.0,30.09,NW,304,1.0,-999.0,19,-99.99,,,0.00,weatherlink.com 1.10,2013-03-29 16:36:00,
2013-03-29 09:51:00,77.2,30.0,30.08,WNW,282,1.0,-999.0,18,-99.99,,,0.00,weatherlink.com 1.10,2013-03-29 16:51:00,
2013-03-29 10:06:00,78.1,31.0,30.08,West,271,1.0,-999.0,18,-99.99,,,0.00,weatherlink.com 1.10,2013-03-29 17:06:00,
2013-03-29 10:21:00,79.4,31.0,30.07,WNW,289,1.0,-999.0,17,-99.99,,,0.00,weatherlink.com 1.10,2013-03-29 17:21:00,
2013-03-29 10:36:00,80.3,33.0,30.07,West,261,1.0,-999.0,18,-99.99,,,0.00,weatherlink.com 1.10,2013-03-29 17:36:00,
2013-03-29 10:51:00,80.9,35.0,30.07,SW,236,4.0,-999.0,19,-99.99,,,0.00,weatherlink.com 1.10,2013-03-29 17:51:00,
2013-03-29 11:22:00,80.1,31.0,30.07,NW,312,0.0,-999.0,17,-99.99,,,0.00,weatherlink.com 1.10,2013-03-29 18:22:00,
2013-03-29 11:37:00,81.2,31.0,30.07,WSW,257,1.0,-999.0,16,-99.99,,,0.00,weatherlink.com 1.10,2013-03-29 18:37:00,
2013-03-29 11:52:00,82.4,29.0,30.06,WSW,254,1.0,-999.0,14,-99.99,,,0.00,weatherlink.com 1.10,2013-03-29 18:52:00,
2013-03-29 12:07:00,83.8,36.0,30.06,West,267,1.0,-999.0,18,-99.99,,,0.00,weatherlink.com 1.10,2013-03-29 19:07:00,
2013-03-29 12:22:00,83.6,34.0,30.05,SSW,210,1.0,-999.0,17,-99.99,,,0.00,weatherlink.com 1.10,2013-03-29 19:22:00,
2013-03-29 12:37:00,83.2,34.0,30.04,WNW,299,7.0,-999.0,17,-99.99,,,0.00,weatherlink.com 1.10,2013-03-29 19:37:00,
2013-03-29 12:52:00,84.1,35.0,30.04,SW,236,4.0,-999.0,17,-99.99,,,0.00,weatherlink.com 1.10,2013-03-29 19:52:00,
2013-03-29 13:07:00,84.5,37.0,30.03,NW,312,6.0,-999.0,18,-99.99,,,0.00,weatherlink.com 1.10,2013-03-29 20:07:00,
2013-03-29 13:22:00,84.0,35.0,30.03,NW,305,2.0,-999.0,17,-99.99,,,0.00,weatherlink.com 1.10,2013-03-29 20:22:00,
2013-03-29 13:37:00,84.7,35.0,30.03,WNW,282,2.0,-999.0,17,-99.99,,,0.00,weatherlink.com 1.10,2013-03-29 20:37:00,
2013-03-29 13:55:00,85.1,37.0,30.02,WNW,289,4.0,-999.0,18,-99.99,,,0.00,weatherlink.com 1.10,2013-03-29 20:55:00,
2013-03-29 14:08:00,86.1,36.0,30.01,NW,304,2.0,-999.0,17,-99.99,,,0.00,weatherlink.com 1.10,2013-03-29 21:08:00,
2013-03-29 14:23:00,85.7,39.0,30.01,WNW,287,8.0,-999.0,19,-99.99,,,0.00,weatherlink.com 1.10,2013-03-29 21:23:00,
2013-03-29 14:38:00,84.9,35.0,30.00,WNW,291,10.0,-999.0,17,-99.99,,,0.00,weatherlink.com 1.10,2013-03-29 21:38:00,
2013-03-29 14:53:00,85.3,36.0,30.01,SW,224,1.0,-999.0,17,-99.99,,,0.00,weatherlink.com 1.10,2013-03-29 21:53:00,
2013-03-29 15:08:00,85.7,35.0,30.00,WNW,282,4.0,-999.0,16,-99.99,,,0.00,weatherlink.com 1.10,2013-03-29 22:08:00,
2013-03-29 15:23:00,84.9,32.0,30.00,WNW,301,4.0,-999.0,15,-99.99,,,0.00,weatherlink.com 1.10,2013-03-29 22:23:00,
2013-03-29 15:38:00,85.3,34.0,29.99,WNW,285,10.0,-999.0,16,-99.99,,,0.00,weatherlink.com 1.10,2013-03-29 22:38:00,
2013-03-29 15:53:00,85.1,32.0,29.99,WNW,298,4.0,-999.0,15,-99.99,,,0.00,weatherlink.com 1.10,2013-03-29 22:53:00,
2013-03-29 16:08:00,85.1,31.0,29.99,WNW,299,10.0,-999.0,14,-99.99,,,0.00,weatherlink.com 1.10,2013-03-29 23:08:00,
2013-03-29 16:23:00,84.5,34.0,29.99,WNW,282,6.0,-999.0,16,-99.99,,,0.00,weatherlink.com 1.10,2013-03-29 23:23:00,
2013-03-29 16:38:00,84.1,32.0,29.99,North,0,4.0,-999.0,15,-99.99,,,0.00,weatherlink.com 1.10,2013-03-29 23:38:00,
2013-03-29 16:53:00,84.7,32.0,29.99,NW,319,7.0,-999.0,15,-99.99,,,0.00,weatherlink.com 1.10,2013-03-29 23:53:00,
2013-03-29 17:08:00,84.0,30.0,29.99,West,278,7.0,-999.0,14,-99.99,,,0.00,weatherlink.com 1.10,2013-03-30 00:08:00,
2013-03-29 17:23:00,83.4,28.0,30.00,WNW,302,7.0,-999.0,13,-99.99,,,0.00,weatherlink.com 1.10,2013-03-30 00:23:00,
2013-03-29 17:38:00,83.0,29.0,30.00,West,270,4.0,-999.0,14,-99.99,,,0.00,weatherlink.com 1.10,2013-03-30 00:38:00,
2013-03-29 17:54:00,82.2,28.0,30.00,NW,326,7.0,-999.0,14,-99.99,,,0.00,weatherlink.com 1.10,2013-03-30 00:54:00,
2013-03-29 18:09:00,81.1,28.0,30.01,NW,308,8.0,-999.0,14,-99.99,,,0.00,weatherlink.com 1.10,2013-03-30 01:09:00,
2013-03-29 18:24:00,79.9,28.0,30.01,NW,305,2.0,-999.0,15,-99.99,,,0.00,weatherlink.com 1.10,2013-03-30 01:24:00,
2013-03-29 18:39:00,78.6,27.0,30.02,WNW,294,1.0,-999.0,15,-99.99,,,0.00,weatherlink.com 1.10,2013-03-30 01:39:00,
2013-03-29 18:54:00,77.7,26.0,30.02,WNW,282,1.0,-999.0,15,-99.99,,,0.00,weatherlink.com 1.10,2013-03-30 01:54:00,
2013-03-29 19:09:00,76.8,26.0,30.02,West,268,6.0,-999.0,15,-99.99,,,0.00,weatherlink.com 1.10,2013-03-30 02:09:00,
2013-03-29 19:24:00,76.1,25.0,29.99,WNW,298,1.0,-999.0,15,-99.99,,,0.00,weatherlink.com 1.10,2013-03-30 02:24:00,
2013-03-29 19:39:00,74.7,26.0,30.00,West,277,2.0,-999.0,16,-99.99,,,0.00,weatherlink.com 1.10,2013-03-30 02:39:00,
2013-03-29 19:54:00,73.9,25.0,30.01,WNW,299,1.0,-999.0,16,-99.99,,,0.00,weatherlink.com 1.10,2013-03-30 02:54:00,
2013-03-29 20:09:00,73.0,24.0,30.01,WNW,296,0.0,-999.0,16,-99.99,,,0.00,weatherlink.com 1.10,2013-03-30 03:09:00,
2013-03-29 20:24:00,71.8,25.0,30.00,WNW,298,0.0,-999.0,17,-99.99,,,0.00,weatherlink.com 1.10,2013-03-30 03:24:00,
2013-03-29 20:39:00,70.6,25.0,30.02,WNW,301,1.0,-999.0,18,-99.99,,,0.00,weatherlink.com 1.10,2013-03-30 03:39:00,
2013-03-29 20:55:00,68.1,24.0,30.03,West,271,0.0,-999.0,19,-99.99,,,0.00,weatherlink.com 1.10,2013-03-30 03:55:00,
2013-03-29 21:10:00,67.6,25.0,30.04,West,271,0.0,-999.0,20,-99.99,,,0.00,weatherlink.com 1.10,2013-03-30 04:10:00,
2013-03-29 21:25:00,65.8,13.0,30.04,West,280,0.0,-999.0,13,-99.99,,,0.00,weatherlink.com 1.10,2013-03-30 04:25:00,
2013-03-29 21:40:00,65.5,13.0,30.04,WNW,299,0.0,-999.0,13,-99.99,,,0.00,weatherlink.com 1.10,2013-03-30 04:40:00,
2013-03-29 21:55:00,64.0,15.0,30.06,WNW,296,2.0,-999.0,15,-99.99,,,0.00,weatherlink.com 1.10,2013-03-30 04:55:00,
2013-03-29 22:10:00,66.1,15.0,30.06,West,280,0.0,-999.0,14,-99.99,,,0.00,weatherlink.com 1.10,2013-03-30 05:10:00,
2013-03-29 22:25:00,66.9,18.0,30.05,WSW,241,0.0,-999.0,15,-99.99,,,0.00,weatherlink.com 1.10,2013-03-30 05:25:00,
2013-03-29 22:40:00,65.6,18.0,30.05,SSW,213,0.0,-999.0,16,-99.99,,,0.00,weatherlink.com 1.10,2013-03-30 05:40:00,
2013-03-29 22:55:00,64.5,19.0,30.05,SSW,213,0.0,-999.0,17,-99.99,,,0.00,weatherlink.com 1.10,2013-03-30 05:55:00,
2013-03-29 23:10:00,63.1,17.0,30.06,SW,219,0.0,-999.0,17,-99.99,,,0.00,weatherlink.com 1.10,2013-03-30 06:10:00,
2013-03-29 23:25:00,62.3,18.0,30.05,SW,219,0.0,-999.0,18,-99.99,,,0.00,weatherlink.com 1.10,2013-03-30 06:25:00,
2013-03-29 23:40:00,61.5,17.0,30.06,SW,220,1.0,-999.0,18,-99.99,,,0.00,weatherlink.com 1.10,2013-03-30 06:40:00,
2013-03-29 23:55:00,61.0,16.0,30.06,SW,223,0.0,-999.0,17,-99.99,,,0.00,weatherlink.com 1.10,2013-03-30 06:55:00,